sensor_id;sensor_type;location;lat;lon;timestamp;P1;durP1;ratioP1;P2;durP2;ratioP2
43877;SDS011;29815;48.184;11.268;2022-12-08T17:50:08;37.88;;;22.10;;
43877;SDS011;29815;48.184;11.268;2022-12-08T17:52:38;37.83;;;22.60;;
43877;SDS011;29815;48.184;11.268;2022-12-08T17:55:08;40.13;;;25.40;;
43877;SDS011;29815;48.184;11.268;2022-12-08T17:57:38;37.42;;;24.20;;
43877;SDS011;29815;48.184;11.268;2022-12-08T18:00:09;63.20;;;37.42;;
43877;SDS011;29815;48.184;11.268;2022-12-08T18:02:42;60.33;;;33.40;;
43877;SDS011;29815;48.184;11.268;2022-12-08T18:05:12;51.22;;;31.63;;
43877;SDS011;29815;48.184;11.268;2022-12-08T18:07:43;51.20;;;31.77;;
43877;SDS011;29815;48.184;11.268;2022-12-08T18:10:13;54.70;;;31.38;;
43877;SDS011;29815;48.184;11.268;2022-12-08T18:12:43;47.00;;;29.70;;
43877;SDS011;29815;48.184;11.268;2022-12-08T18:15:14;47.80;;;30.88;;
43877;SDS011;29815;48.184;11.268;2022-12-08T18:17:49;46.38;;;28.55;;
43877;SDS011;29815;48.184;11.268;2022-12-08T18:20:19;46.50;;;29.75;;
43877;SDS011;29815;48.184;11.268;2022-12-08T18:22:49;49.63;;;30.52;;
43877;SDS011;29815;48.184;11.268;2022-12-08T18:25:19;50.30;;;30.88;;
43877;SDS011;29815;48.184;11.268;2022-12-08T18:27:49;54.00;;;32.45;;
43877;SDS011;29815;48.184;11.268;2022-12-08T18:30:22;51.35;;;33.15;;
43877;SDS011;29815;48.184;11.268;2022-12-08T18:32:54;47.67;;;30.05;;
43877;SDS011;29815;48.184;11.268;2022-12-08T18:35:24;53.40;;;33.53;;
43877;SDS011;29815;48.184;11.268;2022-12-08T18:37:55;45.72;;;31.70;;
43877;SDS011;29815;48.184;11.268;2022-12-08T18:40:24;54.83;;;35.67;;
43877;SDS011;29815;48.184;11.268;2022-12-08T18:42:55;56.53;;;32.28;;
43877;SDS011;29815;48.184;11.268;2022-12-08T18:45:25;50.67;;;31.08;;
43877;SDS011;29815;48.184;11.268;2022-12-08T18:47:56;47.60;;;30.27;;
43877;SDS011;29815;48.184;11.268;2022-12-08T18:50:25;44.45;;;29.92;;
43877;SDS011;29815;48.184;11.268;2022-12-08T18:52:55;52.13;;;33.58;;
43877;SDS011;29815;48.184;11.268;2022-12-08T18:55:25;48.08;;;32.08;;
43877;SDS011;29815;48.184;11.268;2022-12-08T19:00:40;59.05;;;36.20;;
43877;SDS011;29815;48.184;11.268;2022-12-08T19:03:12;56.05;;;33.55;;
43877;SDS011;29815;48.184;11.268;2022-12-08T19:05:41;54.58;;;33.63;;
43877;SDS011;29815;48.184;11.268;2022-12-08T19:08:11;55.60;;;34.17;;
43877;SDS011;29815;48.184;11.268;2022-12-08T19:10:41;51.95;;;33.30;;
43877;SDS011;29815;48.184;11.268;2022-12-08T19:13:10;53.47;;;34.63;;
43877;SDS011;29815;48.184;11.268;2022-12-08T19:15:40;48.08;;;32.15;;
43877;SDS011;29815;48.184;11.268;2022-12-08T19:18:11;51.35;;;31.50;;
43877;SDS011;29815;48.184;11.268;2022-12-08T19:20:41;51.55;;;33.25;;
43877;SDS011;29815;48.184;11.268;2022-12-08T19:23:11;49.67;;;32.47;;
43877;SDS011;29815;48.184;11.268;2022-12-08T19:25:41;49.70;;;30.90;;
43877;SDS011;29815;48.184;11.268;2022-12-08T19:28:11;53.08;;;33.90;;
43877;SDS011;29815;48.184;11.268;2022-12-08T19:30:40;46.03;;;30.27;;
43877;SDS011;29815;48.184;11.268;2022-12-08T19:33:12;51.42;;;31.20;;
43877;SDS011;29815;48.184;11.268;2022-12-08T19:35:41;46.53;;;29.25;;
43877;SDS011;29815;48.184;11.268;2022-12-08T19:38:18;46.47;;;30.63;;
43877;SDS011;29815;48.184;11.268;2022-12-08T19:40:48;46.40;;;30.33;;
43877;SDS011;29815;48.184;11.268;2022-12-08T19:43:35;44.80;;;28.80;;
43877;SDS011;29815;48.184;11.268;2022-12-08T19:46:22;46.15;;;31.10;;
43877;SDS011;29815;48.184;11.268;2022-12-08T19:48:54;50.63;;;30.33;;
43877;SDS011;29815;48.184;11.268;2022-12-08T19:51:24;53.22;;;31.38;;
43877;SDS011;29815;48.184;11.268;2022-12-08T19:53:54;54.08;;;31.30;;
43877;SDS011;29815;48.184;11.268;2022-12-08T19:56:24;47.72;;;30.38;;
43877;SDS011;29815;48.184;11.268;2022-12-08T19:58:54;52.78;;;32.20;;
43877;SDS011;29815;48.184;11.268;2022-12-08T20:01:23;47.33;;;31.23;;
43877;SDS011;29815;48.184;11.268;2022-12-08T20:03:54;42.53;;;27.00;;
43877;SDS011;29815;48.184;11.268;2022-12-08T20:06:24;52.70;;;30.50;;
43877;SDS011;29815;48.184;11.268;2022-12-08T20:08:54;54.20;;;33.38;;
43877;SDS011;29815;48.184;11.268;2022-12-08T20:11:24;46.78;;;31.23;;
43877;SDS011;29815;48.184;11.268;2022-12-08T20:13:54;46.65;;;30.27;;
43877;SDS011;29815;48.184;11.268;2022-12-08T20:16:23;48.25;;;32.35;;
43877;SDS011;29815;48.184;11.268;2022-12-08T20:18:54;53.17;;;33.95;;
43877;SDS011;29815;48.184;11.268;2022-12-08T20:21:24;53.63;;;31.60;;
43877;SDS011;29815;48.184;11.268;2022-12-08T20:23:54;56.50;;;34.92;;
43877;SDS011;29815;48.184;11.268;2022-12-08T20:26:23;52.75;;;36.50;;
43877;SDS011;29815;48.184;11.268;2022-12-08T20:28:53;51.30;;;33.80;;
43877;SDS011;29815;48.184;11.268;2022-12-08T20:31:23;54.40;;;32.60;;
43877;SDS011;29815;48.184;11.268;2022-12-08T20:33:58;58.67;;;36.22;;
43877;SDS011;29815;48.184;11.268;2022-12-08T20:36:28;42.58;;;28.38;;
43877;SDS011;29815;48.184;11.268;2022-12-08T20:38:58;50.13;;;32.63;;
43877;SDS011;29815;48.184;11.268;2022-12-08T20:41:28;46.60;;;29.35;;
43877;SDS011;29815;48.184;11.268;2022-12-08T20:44:05;47.03;;;29.33;;
43877;SDS011;29815;48.184;11.268;2022-12-08T20:46:35;45.38;;;26.83;;
43877;SDS011;29815;48.184;11.268;2022-12-08T20:49:07;38.88;;;23.73;;
43877;SDS011;29815;48.184;11.268;2022-12-08T20:51:36;41.83;;;25.75;;
43877;SDS011;29815;48.184;11.268;2022-12-08T20:54:06;40.42;;;26.17;;
43877;SDS011;29815;48.184;11.268;2022-12-08T20:56:37;38.85;;;25.08;;
43877;SDS011;29815;48.184;11.268;2022-12-08T20:59:15;36.63;;;24.30;;
43877;SDS011;29815;48.184;11.268;2022-12-08T21:01:45;38.10;;;23.77;;
43877;SDS011;29815;48.184;11.268;2022-12-08T21:04:16;43.47;;;27.60;;
43877;SDS011;29815;48.184;11.268;2022-12-08T21:06:46;37.72;;;26.17;;
43877;SDS011;29815;48.184;11.268;2022-12-08T21:09:16;42.90;;;25.95;;
43877;SDS011;29815;48.184;11.268;2022-12-08T21:11:46;42.70;;;27.42;;
43877;SDS011;29815;48.184;11.268;2022-12-08T21:14:15;46.05;;;29.50;;
43877;SDS011;29815;48.184;11.268;2022-12-08T21:16:45;40.72;;;28.45;;
43877;SDS011;29815;48.184;11.268;2022-12-08T21:19:17;43.13;;;28.25;;
43877;SDS011;29815;48.184;11.268;2022-12-08T21:21:48;36.30;;;24.92;;
43877;SDS011;29815;48.184;11.268;2022-12-08T21:24:18;39.65;;;24.20;;
43877;SDS011;29815;48.184;11.268;2022-12-08T21:26:47;41.30;;;25.35;;
43877;SDS011;29815;48.184;11.268;2022-12-08T21:29:17;42.92;;;26.23;;
43877;SDS011;29815;48.184;11.268;2022-12-08T21:31:46;39.28;;;24.15;;
43877;SDS011;29815;48.184;11.268;2022-12-08T21:34:18;37.53;;;23.85;;
43877;SDS011;29815;48.184;11.268;2022-12-08T21:36:47;42.08;;;25.65;;
43877;SDS011;29815;48.184;11.268;2022-12-08T21:39:17;42.30;;;26.45;;
43877;SDS011;29815;48.184;11.268;2022-12-08T21:41:46;38.47;;;25.23;;
43877;SDS011;29815;48.184;11.268;2022-12-08T21:44:34;38.95;;;24.42;;
43877;SDS011;29815;48.184;11.268;2022-12-08T21:47:03;41.75;;;25.92;;
43877;SDS011;29815;48.184;11.268;2022-12-08T21:49:35;40.47;;;24.25;;
43877;SDS011;29815;48.184;11.268;2022-12-08T21:52:04;46.65;;;28.55;;
43877;SDS011;29815;48.184;11.268;2022-12-08T21:54:34;41.63;;;24.77;;
43877;SDS011;29815;48.184;11.268;2022-12-08T21:57:04;34.45;;;23.15;;
43877;SDS011;29815;48.184;11.268;2022-12-08T21:59:34;38.90;;;24.92;;
43877;SDS011;29815;48.184;11.268;2022-12-08T22:02:03;40.72;;;24.85;;
43877;SDS011;29815;48.184;11.268;2022-12-08T22:04:36;43.13;;;25.38;;
43877;SDS011;29815;48.184;11.268;2022-12-08T22:07:07;37.08;;;21.63;;
43877;SDS011;29815;48.184;11.268;2022-12-08T22:09:37;39.72;;;24.38;;
43877;SDS011;29815;48.184;11.268;2022-12-08T22:12:07;35.80;;;22.73;;
43877;SDS011;29815;48.184;11.268;2022-12-08T22:14:38;34.42;;;21.65;;
43877;SDS011;29815;48.184;11.268;2022-12-08T22:17:07;34.95;;;23.08;;
43877;SDS011;29815;48.184;11.268;2022-12-08T22:19:39;43.10;;;26.35;;
43877;SDS011;29815;48.184;11.268;2022-12-08T22:22:09;40.80;;;26.08;;
43877;SDS011;29815;48.184;11.268;2022-12-08T22:24:38;47.92;;;28.45;;
43877;SDS011;29815;48.184;11.268;2022-12-08T22:27:08;54.75;;;32.00;;
43877;SDS011;29815;48.184;11.268;2022-12-08T22:29:38;51.78;;;31.63;;
43877;SDS011;29815;48.184;11.268;2022-12-08T22:32:07;47.05;;;29.38;;
43877;SDS011;29815;48.184;11.268;2022-12-08T22:34:39;46.03;;;29.40;;
43877;SDS011;29815;48.184;11.268;2022-12-08T22:37:09;55.38;;;31.98;;
43877;SDS011;29815;48.184;11.268;2022-12-08T22:39:39;57.65;;;35.28;;
43877;SDS011;29815;48.184;11.268;2022-12-08T22:42:08;59.70;;;33.10;;
43877;SDS011;29815;48.184;11.268;2022-12-08T22:44:38;58.97;;;32.95;;
43877;SDS011;29815;48.184;11.268;2022-12-08T22:47:07;57.80;;;34.53;;
43877;SDS011;29815;48.184;11.268;2022-12-08T22:49:37;55.85;;;34.60;;
43877;SDS011;29815;48.184;11.268;2022-12-08T22:52:09;62.15;;;37.10;;
43877;SDS011;29815;48.184;11.268;2022-12-08T22:54:38;55.80;;;35.58;;
43877;SDS011;29815;48.184;11.268;2022-12-08T22:57:08;57.17;;;35.67;;
43877;SDS011;29815;48.184;11.268;2022-12-08T22:59:38;64.07;;;37.67;;
43877;SDS011;29815;48.184;11.268;2022-12-08T23:02:08;56.38;;;35.00;;
43877;SDS011;29815;48.184;11.268;2022-12-08T23:04:38;65.15;;;38.58;;
43877;SDS011;29815;48.184;11.268;2022-12-08T23:07:09;57.78;;;36.08;;
43877;SDS011;29815;48.184;11.268;2022-12-08T23:09:38;54.22;;;34.95;;
43877;SDS011;29815;48.184;11.268;2022-12-08T23:12:08;51.95;;;30.50;;
43877;SDS011;29815;48.184;11.268;2022-12-08T23:14:38;56.58;;;35.53;;
43877;SDS011;29815;48.184;11.268;2022-12-08T23:17:08;56.17;;;35.85;;
43877;SDS011;29815;48.184;11.268;2022-12-08T23:19:39;53.38;;;32.97;;
43877;SDS011;29815;48.184;11.268;2022-12-08T23:22:09;49.05;;;30.92;;
43877;SDS011;29815;48.184;11.268;2022-12-08T23:24:39;53.85;;;33.03;;
43877;SDS011;29815;48.184;11.268;2022-12-08T23:27:09;53.97;;;34.45;;
43877;SDS011;29815;48.184;11.268;2022-12-08T23:29:38;48.72;;;33.05;;
43877;SDS011;29815;48.184;11.268;2022-12-08T23:32:08;52.70;;;32.20;;
43877;SDS011;29815;48.184;11.268;2022-12-08T23:34:39;52.58;;;31.73;;
43877;SDS011;29815;48.184;11.268;2022-12-08T23:37:09;54.50;;;33.92;;
43877;SDS011;29815;48.184;11.268;2022-12-08T23:39:38;58.03;;;34.42;;
43877;SDS011;29815;48.184;11.268;2022-12-08T23:42:08;54.38;;;31.08;;
43877;SDS011;29815;48.184;11.268;2022-12-08T23:44:38;61.30;;;33.47;;
43877;SDS011;29815;48.184;11.268;2022-12-08T23:47:07;57.92;;;34.60;;
43877;SDS011;29815;48.184;11.268;2022-12-08T23:49:37;60.80;;;34.33;;
43877;SDS011;29815;48.184;11.268;2022-12-08T23:52:10;61.72;;;31.95;;
43877;SDS011;29815;48.184;11.268;2022-12-08T23:54:40;57.42;;;32.40;;
43877;SDS011;29815;48.184;11.268;2022-12-08T23:57:10;50.17;;;30.00;;
43877;SDS011;29815;48.184;11.268;2022-12-08T23:59:40;47.03;;;28.38;;
